sensor_id;sensor_type;location;lat;lon;timestamp;pressure;altitude;pressure_sealevel;temperature;humidity
60307;BME280;46155;52.364;6.580;2023-02-10T04:02:30;103214.41;;;0.57;100.00
60307;BME280;46155;52.364;6.580;2023-02-10T04:04:55;103225.59;;;0.63;100.00
60307;BME280;46155;52.364;6.580;2023-02-10T04:07:21;103234.06;;;0.62;100.00
60307;BME280;46155;52.364;6.580;2023-02-10T04:09:46;103237.81;;;0.64;100.00
60307;BME280;46155;52.364;6.580;2023-02-10T04:12:11;103235.94;;;0.63;100.00
60307;BME280;46155;52.364;6.580;2023-02-10T04:14:38;103234.53;;;0.65;100.00
60307;BME280;46155;52.364;6.580;2023-02-10T04:17:03;103236.38;;;0.66;100.00
60307;BME280;46155;52.364;6.580;2023-02-10T04:19:28;103215.34;;;0.58;100.00
60307;BME280;46155;52.364;6.580;2023-02-10T04:21:54;103230.78;;;0.63;100.00
60307;BME280;46155;52.364;6.580;2023-02-10T04:24:19;103232.31;;;0.56;100.00
60307;BME280;46155;52.364;6.580;2023-02-10T04:26:45;103235.38;;;0.53;100.00
60307;BME280;46155;52.364;6.580;2023-02-10T04:29:10;103239.72;;;0.47;100.00
60307;BME280;46155;52.364;6.580;2023-02-10T04:31:35;103240.63;;;0.47;100.00
60307;BME280;46155;52.364;6.580;2023-02-10T04:34:00;103246.28;;;0.45;100.00
60307;BME280;46155;52.364;6.580;2023-02-10T04:36:26;103251.88;;;0.48;100.00
60307;BME280;46155;52.364;6.580;2023-02-10T04:38:51;103250.75;;;0.46;100.00
60307;BME280;46155;52.364;6.580;2023-02-10T04:41:16;103250.75;;;0.46;100.00
60307;BME280;46155;52.364;6.580;2023-02-10T04:43:42;103259.66;;;0.48;100.00
60307;BME280;46155;52.364;6.580;2023-02-10T04:46:07;103271.44;;;0.46;100.00
60307;BME280;46155;52.364;6.580;2023-02-10T04:48:33;103262.59;;;0.38;100.00
60307;BME280;46155;52.364;6.580;2023-02-10T04:50:59;103285.50;;;0.48;100.00
60307;BME280;46155;52.364;6.580;2023-02-10T04:53:24;103273.38;;;0.41;100.00
60307;BME280;46155;52.364;6.580;2023-02-10T04:55:50;103279.91;;;0.45;100.00
60307;BME280;46155;52.364;6.580;2023-02-10T04:58:16;103275.97;;;0.41;100.00
60307;BME280;46155;52.364;6.580;2023-02-10T05:00:42;103262.22;;;0.29;100.00
60307;BME280;46155;52.364;6.580;2023-02-10T05:03:07;103271.72;;;0.23;100.00
60307;BME280;46155;52.364;6.580;2023-02-10T05:05:32;103253.91;;;0.19;100.00
60307;BME280;46155;52.364;6.580;2023-02-10T05:07:58;103262.34;;;0.18;100.00
60307;BME280;46155;52.364;6.580;2023-02-10T05:10:23;103263.75;;;0.22;100.00
60307;BME280;46155;52.364;6.580;2023-02-10T05:12:48;103261.38;;;0.23;100.00
60307;BME280;46155;52.364;6.580;2023-02-10T05:15:14;103269.81;;;0.22;100.00
60307;BME280;46155;52.364;6.580;2023-02-10T05:17:40;103256.19;;;0.23;100.00
60307;BME280;46155;52.364;6.580;2023-02-10T05:20:05;103246.84;;;0.18;100.00
60307;BME280;46155;52.364;6.580;2023-02-10T05:22:34;103253.84;;;0.25;100.00
60307;BME280;46155;52.364;6.580;2023-02-10T05:25:00;103246.56;;;0.22;100.00
60307;BME280;46155;52.364;6.580;2023-02-10T05:27:25;103252.91;;;0.24;100.00
60307;BME280;46155;52.364;6.580;2023-02-10T05:29:50;103250.53;;;0.26;100.00
60307;BME280;46155;52.364;6.580;2023-02-10T05:32:16;103255.78;;;0.20;100.00
60307;BME280;46155;52.364;6.580;2023-02-10T05:34:41;103256.06;;;0.16;100.00
60307;BME280;46155;52.364;6.580;2023-02-10T05:37:06;103260.06;;;0.14;100.00
60307;BME280;46155;52.364;6.580;2023-02-10T05:39:32;103259.84;;;0.12;100.00
60307;BME280;46155;52.364;6.580;2023-02-10T05:41:58;103259.56;;;0.16;100.00
60307;BME280;46155;52.364;6.580;2023-02-10T05:44:26;103269.69;;;0.15;100.00
60307;BME280;46155;52.364;6.580;2023-02-10T05:46:52;103267.59;;;0.12;100.00
60307;BME280;46155;52.364;6.580;2023-02-10T05:49:17;103267.16;;;0.09;100.00
60307;BME280;46155;52.364;6.580;2023-02-10T05:51:43;103268.59;;;0.07;100.00
60307;BME280;46155;52.364;6.580;2023-02-10T05:54:08;103265.50;;;0.10;100.00
60307;BME280;46155;52.364;6.580;2023-02-10T05:56:34;103259.41;;;0.09;100.00
60307;BME280;46155;52.364;6.580;2023-02-10T05:58:59;103260.84;;;0.07;100.00
60307;BME280;46155;52.364;6.580;2023-02-10T06:01:25;103268.81;;;0.09;100.00
60307;BME280;46155;52.364;6.580;2023-02-10T06:03:50;103251.28;;;0.01;100.00
60307;BME280;46155;52.364;6.580;2023-02-10T06:06:16;103260.91;;;0.02;100.00
60307;BME280;46155;52.364;6.580;2023-02-10T06:08:41;103252.00;;;-0.01;100.00
60307;BME280;46155;52.364;6.580;2023-02-10T06:11:07;103261.13;;;0.03;100.00
60307;BME280;46155;52.364;6.580;2023-02-10T06:13:32;103252.56;;;-0.09;100.00
60307;BME280;46155;52.364;6.580;2023-02-10T06:15:57;103255.88;;;-0.10;100.00
60307;BME280;46155;52.364;6.580;2023-02-10T06:18:23;103249.03;;;-0.09;100.00
60307;BME280;46155;52.364;6.580;2023-02-10T06:20:48;103258.41;;;-0.04;100.00
60307;BME280;46155;52.364;6.580;2023-02-10T06:23:16;103259.75;;;-0.01;100.00
60307;BME280;46155;52.364;6.580;2023-02-10T06:25:42;103247.13;;;-0.05;100.00
60307;BME280;46155;52.364;6.580;2023-02-10T06:28:07;103266.31;;;0.03;100.00
60307;BME280;46155;52.364;6.580;2023-02-10T06:30:32;103261.63;;;0.01;100.00
60307;BME280;46155;52.364;6.580;2023-02-10T06:32:58;103265.13;;;0.01;100.00
60307;BME280;46155;52.364;6.580;2023-02-10T06:35:23;103263.50;;;0.02;100.00
60307;BME280;46155;52.364;6.580;2023-02-10T06:37:48;103257.81;;;0.04;100.00
60307;BME280;46155;52.364;6.580;2023-02-10T06:40:14;103268.59;;;0.07;100.00
60307;BME280;46155;52.364;6.580;2023-02-10T06:42:39;103273.25;;;0.10;100.00
60307;BME280;46155;52.364;6.580;2023-02-10T06:45:05;103275.13;;;0.11;100.00
60307;BME280;46155;52.364;6.580;2023-02-10T06:47:31;103280.28;;;0.11;100.00
60307;BME280;46155;52.364;6.580;2023-02-10T06:49:56;103280.28;;;0.11;100.00
60307;BME280;46155;52.364;6.580;2023-02-10T06:52:22;103282.59;;;0.15;100.00
60307;BME280;46155;52.364;6.580;2023-02-10T06:54:49;103289.63;;;0.16;100.00
60307;BME280;46155;52.364;6.580;2023-02-10T06:57:15;103278.41;;;0.10;100.00
60307;BME280;46155;52.364;6.580;2023-02-10T06:59:40;103281.28;;;0.06;100.00
60307;BME280;46155;52.364;6.580;2023-02-10T07:02:05;103295.34;;;0.08;100.00
60307;BME280;46155;52.364;6.580;2023-02-10T07:04:34;103298.59;;;0.12;100.00
60307;BME280;46155;52.364;6.580;2023-02-10T07:07:00;103305.34;;;0.17;100.00
60307;BME280;46155;52.364;6.580;2023-02-10T07:09:25;103312.09;;;0.23;100.00
60307;BME280;46155;52.364;6.580;2023-02-10T07:11:50;103310.94;;;0.21;100.00
60307;BME280;46155;52.364;6.580;2023-02-10T07:14:16;103306.00;;;0.22;100.00
60307;BME280;46155;52.364;6.580;2023-02-10T07:16:41;103313.53;;;0.21;100.00
60307;BME280;46155;52.364;6.580;2023-02-10T07:19:07;103298.97;;;0.21;100.00
60307;BME280;46155;52.364;6.580;2023-02-10T07:21:32;103288.47;;;0.14;100.00
60307;BME280;46155;52.364;6.580;2023-02-10T07:23:57;103286.38;;;0.11;100.00
60307;BME280;46155;52.364;6.580;2023-02-10T07:26:23;103284.97;;;0.13;100.00
60307;BME280;46155;52.364;6.580;2023-02-10T07:28:48;103284.97;;;0.13;100.00
60307;BME280;46155;52.364;6.580;2023-02-10T07:31:14;103286.53;;;0.00;100.00
60307;BME280;46155;52.364;6.580;2023-02-10T07:33:39;103291.59;;;0.06;100.00
60307;BME280;46155;52.364;6.580;2023-02-10T07:36:05;103302.41;;;0.09;100.00
60307;BME280;46155;52.364;6.580;2023-02-10T07:38:31;103297.66;;;0.12;100.00
60307;BME280;46155;52.364;6.580;2023-02-10T07:40:57;103290.50;;;0.22;100.00
60307;BME280;46155;52.364;6.580;2023-02-10T07:43:22;103296.84;;;0.24;100.00
60307;BME280;46155;52.364;6.580;2023-02-10T07:45:48;103299.41;;;0.24;100.00
60307;BME280;46155;52.364;6.580;2023-02-10T07:48:16;103304.81;;;0.26;100.00
60307;BME280;46155;52.364;6.580;2023-02-10T07:50:41;103309.75;;;0.24;100.00
60307;BME280;46155;52.364;6.580;2023-02-10T07:53:06;103318.50;;;0.38;100.00
60307;BME280;46155;52.364;6.580;2023-02-10T07:55:32;103312.91;;;0.34;100.00
60307;BME280;46155;52.364;6.580;2023-02-10T07:57:57;103335.97;;;0.51;100.00
60307;BME280;46155;52.364;6.580;2023-02-10T08:00:22;103334.97;;;0.57;100.00
60307;BME280;46155;52.364;6.580;2023-02-10T08:02:47;103332.31;;;0.62;100.00
60307;BME280;46155;52.364;6.580;2023-02-10T08:05:13;103325.88;;;0.72;100.00
60307;BME280;46155;52.364;6.580;2023-02-10T08:07:38;103328.88;;;0.75;100.00
60307;BME280;46155;52.364;6.580;2023-02-10T08:10:04;103331.59;;;0.82;100.00
60307;BME280;46155;52.364;6.580;2023-02-10T08:12:29;103337.66;;;0.88;100.00
60307;BME280;46155;52.364;6.580;2023-02-10T08:14:54;103343.59;;;1.00;100.00
60307;BME280;46155;52.364;6.580;2023-02-10T08:17:20;103345.69;;;1.02;100.00
60307;BME280;46155;52.364;6.580;2023-02-10T08:19:45;103340.22;;;1.07;100.00
60307;BME280;46155;52.364;6.580;2023-02-10T08:22:10;103334.69;;;1.16;100.00
60307;BME280;46155;52.364;6.580;2023-02-10T08:24:36;103333.84;;;1.23;100.00
60307;BME280;46155;52.364;6.580;2023-02-10T08:27:03;103342.59;;;1.36;100.00
60307;BME280;46155;52.364;6.580;2023-02-10T08:29:28;103338.78;;;1.40;100.00
60307;BME280;46155;52.364;6.580;2023-02-10T08:31:53;103327.41;;;1.45;100.00
60307;BME280;46155;52.364;6.580;2023-02-10T08:34:19;103335.09;;;1.51;100.00
60307;BME280;46155;52.364;6.580;2023-02-10T08:36:45;103338.50;;;1.57;100.00
60307;BME280;46155;52.364;6.580;2023-02-10T08:39:11;103326.50;;;1.58;100.00
60307;BME280;46155;52.364;6.580;2023-02-10T08:41:37;103325.47;;;1.76;100.00
60307;BME280;46155;52.364;6.580;2023-02-10T08:44:03;103325.41;;;1.94;100.00
60307;BME280;46155;52.364;6.580;2023-02-10T08:46:28;103322.41;;;2.04;100.00
60307;BME280;46155;52.364;6.580;2023-02-10T08:48:53;103317.75;;;2.14;100.00
60307;BME280;46155;52.364;6.580;2023-02-10T08:51:19;103316.81;;;2.14;100.00
60307;BME280;46155;52.364;6.580;2023-02-10T08:53:45;103330.41;;;2.31;100.00
60307;BME280;46155;52.364;6.580;2023-02-10T08:56:14;103339.59;;;2.42;100.00
60307;BME280;46155;52.364;6.580;2023-02-10T08:58:40;103317.00;;;2.41;100.00
60307;BME280;46155;52.364;6.580;2023-02-10T09:01:14;103330.16;;;2.55;100.00
60307;BME280;46155;52.364;6.580;2023-02-10T09:03:41;103327.53;;;2.68;100.00
60307;BME280;46155;52.364;6.580;2023-02-10T09:06:23;103324.88;;;2.81;100.00
60307;BME280;46155;52.364;6.580;2023-02-10T09:08:49;103325.13;;;3.03;100.00
60307;BME280;46155;52.364;6.580;2023-02-10T09:11:16;103338.25;;;3.37;100.00
60307;BME280;46155;52.364;6.580;2023-02-10T09:13:42;103343.84;;;3.40;100.00
60307;BME280;46155;52.364;6.580;2023-02-10T09:16:07;103339.84;;;3.50;100.00
60307;BME280;46155;52.364;6.580;2023-02-10T09:18:33;103339.91;;;3.57;100.00
60307;BME280;46155;52.364;6.580;2023-02-10T09:21:00;103348.09;;;3.60;100.00
60307;BME280;46155;52.364;6.580;2023-02-10T09:23:26;103350.69;;;3.60;100.00
60307;BME280;46155;52.364;6.580;2023-02-10T09:25:56;103336.78;;;3.59;100.00
60307;BME280;46155;52.364;6.580;2023-02-10T09:28:22;103345.03;;;3.50;100.00
60307;BME280;46155;52.364;6.580;2023-02-10T09:30:47;103341.59;;;3.56;100.00
60307;BME280;46155;52.364;6.580;2023-02-10T09:33:13;103345.03;;;3.50;100.00
60307;BME280;46155;52.364;6.580;2023-02-10T09:35:39;103339.06;;;3.43;100.00
60307;BME280;46155;52.364;6.580;2023-02-10T09:38:06;103337.13;;;3.35;100.00
60307;BME280;46155;52.364;6.580;2023-02-10T09:40:33;103333.41;;;3.33;100.00
60307;BME280;46155;52.364;6.580;2023-02-10T09:46:40;103339.84;;;3.50;100.00
60307;BME280;46155;52.364;6.580;2023-02-10T09:54:32;103338.13;;;3.63;100.00
60307;BME280;46155;52.364;6.580;2023-02-10T09:57:03;103335.47;;;3.56;100.00
60307;BME280;46155;52.364;6.580;2023-02-10T09:59:29;103331.56;;;3.59;100.00
60307;BME280;46155;52.364;6.580;2023-02-10T10:01:58;103345.63;;;3.74;100.00
60307;BME280;46155;52.364;6.580;2023-02-10T10:04:27;103338.31;;;3.92;100.00
60307;BME280;46155;52.364;6.580;2023-02-10T10:07:26;103345.19;;;4.19;100.00
60307;BME280;46155;52.364;6.580;2023-02-10T10:10:05;103354.75;;;4.33;100.00
60307;BME280;46155;52.364;6.580;2023-02-10T10:12:37;103339.28;;;4.27;100.00
60307;BME280;46155;52.364;6.580;2023-02-10T10:15:04;103354.25;;;4.42;100.00
60307;BME280;46155;52.364;6.580;2023-02-10T10:18:00;103353.16;;;4.55;100.00
60307;BME280;46155;52.364;6.580;2023-02-10T10:20:49;103361.97;;;4.70;100.00
60307;BME280;46155;52.364;6.580;2023-02-10T10:23:34;103364.63;;;4.84;100.00
60307;BME280;46155;52.364;6.580;2023-02-10T10:28:41;103360.13;;;4.76;100.00
60307;BME280;46155;52.364;6.580;2023-02-10T10:31:14;103370.56;;;4.83;100.00
60307;BME280;46155;52.364;6.580;2023-02-10T10:33:45;103372.97;;;4.81;100.00
60307;BME280;46155;52.364;6.580;2023-02-10T10:36:19;103362.94;;;4.77;100.00
60307;BME280;46155;52.364;6.580;2023-02-10T10:38:50;103358.47;;;4.76;100.00
60307;BME280;46155;52.364;6.580;2023-02-10T10:41:16;103355.47;;;4.73;100.00
60307;BME280;46155;52.364;6.580;2023-02-10T10:43:48;103357.69;;;4.70;100.00
60307;BME280;46155;52.364;6.580;2023-02-10T10:49:00;103355.31;;;4.79;100.00
60307;BME280;46155;52.364;6.580;2023-02-10T10:51:26;103361.69;;;4.88;100.00
60307;BME280;46155;52.364;6.580;2023-02-10T10:53:54;103368.97;;;4.98;100.00
60307;BME280;46155;52.364;6.580;2023-02-10T10:58:52;103362.59;;;4.89;100.00
60307;BME280;46155;52.364;6.580;2023-02-10T11:01:20;103367.06;;;4.90;100.00
60307;BME280;46155;52.364;6.580;2023-02-10T11:04:07;103363.22;;;5.00;100.00
60307;BME280;46155;52.364;6.580;2023-02-10T11:06:36;103361.00;;;5.11;100.00
60307;BME280;46155;52.364;6.580;2023-02-10T11:09:04;103350.41;;;5.16;99.27
60307;BME280;46155;52.364;6.580;2023-02-10T11:11:39;103357.50;;;5.17;99.70
60307;BME280;46155;52.364;6.580;2023-02-10T11:14:16;103341.28;;;5.20;98.72
60307;BME280;46155;52.364;6.580;2023-02-10T11:16:50;103336.25;;;5.14;99.26
60307;BME280;46155;52.364;6.580;2023-02-10T11:19:19;103338.84;;;5.14;99.36
60307;BME280;46155;52.364;6.580;2023-02-10T11:21:44;103341.47;;;5.14;99.57
60307;BME280;46155;52.364;6.580;2023-02-10T11:24:31;103340.19;;;5.25;99.02
60307;BME280;46155;52.364;6.580;2023-02-10T11:27:13;103335.34;;;5.28;98.60
60307;BME280;46155;52.364;6.580;2023-02-10T11:29:49;103324.19;;;5.29;98.67
60307;BME280;46155;52.364;6.580;2023-02-10T11:32:35;103321.41;;;5.21;99.04
60307;BME280;46155;52.364;6.580;2023-02-10T11:35:03;103328.84;;;5.17;97.42
60307;BME280;46155;52.364;6.580;2023-02-10T11:37:33;103326.97;;;5.09;98.38
60307;BME280;46155;52.364;6.580;2023-02-10T11:40:03;103330.13;;;5.14;99.25
60307;BME280;46155;52.364;6.580;2023-02-10T11:42:32;103335.16;;;5.20;99.04
60307;BME280;46155;52.364;6.580;2023-02-10T11:45:16;103321.41;;;5.21;99.50
60307;BME280;46155;52.364;6.580;2023-02-10T11:47:42;103316.34;;;5.08;99.06
60307;BME280;46155;52.364;6.580;2023-02-10T11:50:22;103318.44;;;5.17;100.00
60307;BME280;46155;52.364;6.580;2023-02-10T11:52:48;103322.69;;;5.24;99.25
60307;BME280;46155;52.364;6.580;2023-02-10T11:55:15;103314.69;;;5.15;98.78
60307;BME280;46155;52.364;6.580;2023-02-10T11:58:03;103297.94;;;5.13;99.92
60307;BME280;46155;52.364;6.580;2023-02-10T12:00:56;103302.63;;;5.16;99.25
60307;BME280;46155;52.364;6.580;2023-02-10T12:14:13;103301.47;;;5.43;100.00
60307;BME280;46155;52.364;6.580;2023-02-10T12:22:13;103297.59;;;5.39;100.00
60307;BME280;46155;52.364;6.580;2023-02-10T12:24:56;103301.47;;;5.35;100.00
60307;BME280;46155;52.364;6.580;2023-02-10T12:30:30;103291.66;;;5.47;100.00
60307;BME280;46155;52.364;6.580;2023-02-10T12:38:40;103278.63;;;5.55;100.00
60307;BME280;46155;52.364;6.580;2023-02-10T12:41:30;103268.56;;;5.58;100.00
60307;BME280;46155;52.364;6.580;2023-02-10T12:52:19;103255.53;;;5.50;100.00
60307;BME280;46155;52.364;6.580;2023-02-10T12:54:55;103258.31;;;5.59;100.00
60307;BME280;46155;52.364;6.580;2023-02-10T12:57:27;103251.03;;;5.64;100.00
60307;BME280;46155;52.364;6.580;2023-02-10T13:00:08;103260.72;;;5.65;100.00
60307;BME280;46155;52.364;6.580;2023-02-10T13:02:45;103268.16;;;5.69;100.00
60307;BME280;46155;52.364;6.580;2023-02-10T13:05:31;103263.66;;;5.75;100.00
60307;BME280;46155;52.364;6.580;2023-02-10T13:08:01;103254.75;;;5.73;100.00
60307;BME280;46155;52.364;6.580;2023-02-10T13:10:39;103254.75;;;5.73;100.00
60307;BME280;46155;52.364;6.580;2023-02-10T13:13:14;103252.69;;;5.78;100.00
60307;BME280;46155;52.364;6.580;2023-02-10T13:15:43;103253.25;;;5.75;100.00
60307;BME280;46155;52.364;6.580;2023-02-10T13:18:22;103254.75;;;5.73;100.00
60307;BME280;46155;52.364;6.580;2023-02-10T13:23:48;103239.84;;;5.79;100.00
60307;BME280;46155;52.364;6.580;2023-02-10T13:26:51;103234.06;;;5.82;100.00
60307;BME280;46155;52.364;6.580;2023-02-10T13:29:41;103221.94;;;5.82;100.00
60307;BME280;46155;52.364;6.580;2023-02-10T13:32:26;103209.31;;;5.85;100.00
60307;BME280;46155;52.364;6.580;2023-02-10T13:35:00;103207.41;;;5.92;100.00
60307;BME280;46155;52.364;6.580;2023-02-10T13:37:37;103200.34;;;5.98;100.00
60307;BME280;46155;52.364;6.580;2023-02-10T13:40:25;103202.91;;;6.05;100.00
60307;BME280;46155;52.364;6.580;2023-02-10T13:42:54;103191.19;;;6.09;100.00
60307;BME280;46155;52.364;6.580;2023-02-10T13:45:23;103182.41;;;6.15;100.00
60307;BME280;46155;52.364;6.580;2023-02-10T13:47:56;103187.22;;;6.19;98.97
60307;BME280;46155;52.364;6.580;2023-02-10T13:50:27;103195.78;;;6.18;97.91
60307;BME280;46155;52.364;6.580;2023-02-10T13:53:23;103194.84;;;6.18;97.30
60307;BME280;46155;52.364;6.580;2023-02-10T13:55:50;103198.72;;;6.29;97.72
60307;BME280;46155;52.364;6.580;2023-02-10T13:58:28;103191.97;;;6.38;96.09
60307;BME280;46155;52.364;6.580;2023-02-10T14:00:55;103191.41;;;6.33;96.07
60307;BME280;46155;52.364;6.580;2023-02-10T14:03:22;103194.75;;;6.40;95.78
60307;BME280;46155;52.364;6.580;2023-02-10T14:06:03;103183.97;;;6.36;95.31
60307;BME280;46155;52.364;6.580;2023-02-10T14:11:28;103185.19;;;6.47;95.20
60307;BME280;46155;52.364;6.580;2023-02-10T14:14:04;103183.31;;;6.53;94.61
60307;BME280;46155;52.364;6.580;2023-02-10T14:16:41;103163.91;;;6.51;94.62
60307;BME280;46155;52.364;6.580;2023-02-10T14:19:36;103156.81;;;6.50;94.34
60307;BME280;46155;52.364;6.580;2023-02-10T14:22:04;103161.66;;;6.54;94.80
60307;BME280;46155;52.364;6.580;2023-02-10T14:24:34;103156.78;;;6.58;95.08
60307;BME280;46155;52.364;6.580;2023-02-10T14:27:01;103160.16;;;6.57;94.26
60307;BME280;46155;52.364;6.580;2023-02-10T14:29:29;103155.34;;;6.52;94.18
60307;BME280;46155;52.364;6.580;2023-02-10T14:31:57;103153.47;;;6.51;94.02
60307;BME280;46155;52.364;6.580;2023-02-10T14:34:27;103150.53;;;6.48;93.42
60307;BME280;46155;52.364;6.580;2023-02-10T14:36:57;103170.25;;;6.53;92.78
60307;BME280;46155;52.364;6.580;2023-02-10T14:39:25;103168.38;;;6.52;92.96
60307;BME280;46155;52.364;6.580;2023-02-10T14:41:53;103157.00;;;6.52;92.24
60307;BME280;46155;52.364;6.580;2023-02-10T14:44:30;103147.69;;;6.54;92.22
60307;BME280;46155;52.364;6.580;2023-02-10T14:46:58;103139.69;;;6.52;92.31
60307;BME280;46155;52.364;6.580;2023-02-10T14:49:23;103147.84;;;6.55;91.85
60307;BME280;46155;52.364;6.580;2023-02-10T14:51:49;103141.91;;;6.57;92.04
60307;BME280;46155;52.364;6.580;2023-02-10T14:54:22;103140.19;;;6.57;91.49
60307;BME280;46155;52.364;6.580;2023-02-10T14:56:59;103135.94;;;6.50;90.72
60307;BME280;46155;52.364;6.580;2023-02-10T14:59:27;103141.72;;;6.55;90.30
60307;BME280;46155;52.364;6.580;2023-02-10T15:01:54;103146.56;;;6.52;88.92
60307;BME280;46155;52.364;6.580;2023-02-10T15:04:21;103143.94;;;6.52;87.81
60307;BME280;46155;52.364;6.580;2023-02-10T15:06:52;103157.56;;;6.57;87.53
60307;BME280;46155;52.364;6.580;2023-02-10T15:09:20;103149.72;;;6.57;87.19
60307;BME280;46155;52.364;6.580;2023-02-10T15:11:59;103149.72;;;6.57;86.75
60307;BME280;46155;52.364;6.580;2023-02-10T15:17:22;103138.78;;;6.45;84.85
60307;BME280;46155;52.364;6.580;2023-02-10T15:20:00;103139.72;;;6.45;85.02
60307;BME280;46155;52.364;6.580;2023-02-10T15:22:37;103127.44;;;6.44;84.43
60307;BME280;46155;52.364;6.580;2023-02-10T15:25:29;103137.63;;;6.50;84.78
60307;BME280;46155;52.364;6.580;2023-02-10T15:33:52;103137.53;;;6.41;85.28
60307;BME280;46155;52.364;6.580;2023-02-10T15:36:26;103130.44;;;6.40;84.90
60307;BME280;46155;52.364;6.580;2023-02-10T15:41:42;103129.41;;;6.31;86.58
60307;BME280;46155;52.364;6.580;2023-02-10T15:46:42;103117.31;;;6.24;86.17
60307;BME280;46155;52.364;6.580;2023-02-10T15:49:15;103125.88;;;6.23;87.57
60307;BME280;46155;52.364;6.580;2023-02-10T15:51:48;103115.69;;;6.17;88.56
60307;BME280;46155;52.364;6.580;2023-02-10T15:54:17;103112.38;;;6.11;88.84
60307;BME280;46155;52.364;6.580;2023-02-10T15:56:54;103123.88;;;6.13;88.46
60307;BME280;46155;52.364;6.580;2023-02-10T15:59:20;103127.06;;;6.11;89.15
60307;BME280;46155;52.364;6.580;2023-02-10T16:01:47;103110.16;;;6.07;89.15
60307;BME280;46155;52.364;6.580;2023-02-10T16:04:12;103122.63;;;6.10;89.79
60307;BME280;46155;52.364;6.580;2023-02-10T16:06:39;103115.50;;;6.16;89.12
60307;BME280;46155;52.364;6.580;2023-02-10T16:09:04;103126.81;;;6.24;89.02
60307;BME280;46155;52.364;6.580;2023-02-10T16:11:30;103117.88;;;6.22;89.67
60307;BME280;46155;52.364;6.580;2023-02-10T16:13:55;103132.03;;;6.24;88.86
60307;BME280;46155;52.364;6.580;2023-02-10T16:16:20;103103.16;;;6.22;89.43
60307;BME280;46155;52.364;6.580;2023-02-10T16:18:46;103098.56;;;6.12;90.37
60307;BME280;46155;52.364;6.580;2023-02-10T16:21:12;103094.13;;;6.11;90.70
60307;BME280;46155;52.364;6.580;2023-02-10T16:23:39;103098.22;;;6.09;90.69
60307;BME280;46155;52.364;6.580;2023-02-10T16:26:05;103106.59;;;6.07;91.49
60307;BME280;46155;52.364;6.580;2023-02-10T16:28:30;103111.47;;;6.03;91.84
60307;BME280;46155;52.364;6.580;2023-02-10T16:30:55;103097.16;;;6.00;92.42
60307;BME280;46155;52.364;6.580;2023-02-10T16:33:20;103088.38;;;5.99;92.74
60307;BME280;46155;52.364;6.580;2023-02-10T16:35:46;103083.34;;;5.94;92.58
60307;BME280;46155;52.364;6.580;2023-02-10T16:38:11;103121.19;;;5.97;92.85
60307;BME280;46155;52.364;6.580;2023-02-10T16:40:38;103076.88;;;5.90;93.26
60307;BME280;46155;52.364;6.580;2023-02-10T16:43:06;103060.88;;;5.87;94.43
60307;BME280;46155;52.364;6.580;2023-02-10T16:45:33;103032.03;;;5.78;94.66
60307;BME280;46155;52.364;6.580;2023-02-10T16:47:59;103025.59;;;5.67;95.66
60307;BME280;46155;52.364;6.580;2023-02-10T16:50:35;103062.63;;;5.72;95.99
60307;BME280;46155;52.364;6.580;2023-02-10T16:53:02;103094.63;;;5.71;96.54
60307;BME280;46155;52.364;6.580;2023-02-10T16:55:29;103076.03;;;5.68;97.20
60307;BME280;46155;52.364;6.580;2023-02-10T16:57:55;103065.25;;;5.65;97.57
60307;BME280;46155;52.364;6.580;2023-02-10T17:00:21;103060.66;;;5.55;97.64
60307;BME280;46155;52.364;6.580;2023-02-10T17:02:47;103083.94;;;5.54;98.41
60307;BME280;46155;52.364;6.580;2023-02-10T17:05:13;103082.44;;;5.48;99.33
60307;BME280;46155;52.364;6.580;2023-02-10T17:07:38;103104.78;;;5.46;99.56
60307;BME280;46155;52.364;6.580;2023-02-10T17:10:06;103096.25;;;5.40;100.00
60307;BME280;46155;52.364;6.580;2023-02-10T17:12:33;103108.13;;;5.45;100.00
60307;BME280;46155;52.364;6.580;2023-02-10T17:14:59;103118.75;;;5.47;100.00
60307;BME280;46155;52.364;6.580;2023-02-10T17:17:25;103122.28;;;5.47;100.00
60307;BME280;46155;52.364;6.580;2023-02-10T17:19:50;103123.03;;;5.46;100.00
60307;BME280;46155;52.364;6.580;2023-02-10T17:22:15;103116.88;;;5.53;100.00
60307;BME280;46155;52.364;6.580;2023-02-10T17:24:40;103109.63;;;5.50;100.00
60307;BME280;46155;52.364;6.580;2023-02-10T17:27:07;103122.06;;;5.60;100.00
60307;BME280;46155;52.364;6.580;2023-02-10T17:29:33;103103.25;;;5.56;100.00
60307;BME280;46155;52.364;6.580;2023-02-10T17:31:58;103100.84;;;5.50;100.00
60307;BME280;46155;52.364;6.580;2023-02-10T17:34:23;103102.00;;;5.52;100.00
60307;BME280;46155;52.364;6.580;2023-02-10T17:36:49;103096.59;;;5.50;100.00
60307;BME280;46155;52.364;6.580;2023-02-10T17:39:19;103098.47;;;5.44;100.00
60307;BME280;46155;52.364;6.580;2023-02-10T17:41:50;103097.88;;;5.54;100.00
60307;BME280;46155;52.364;6.580;2023-02-10T17:44:17;103102.00;;;5.52;100.00
60307;BME280;46155;52.364;6.580;2023-02-10T17:46:42;103094.16;;;5.52;100.00
60307;BME280;46155;52.364;6.580;2023-02-10T17:49:12;103080.78;;;5.49;100.00
60307;BME280;46155;52.364;6.580;2023-02-10T17:51:37;103088.03;;;5.44;100.00
60307;BME280;46155;52.364;6.580;2023-02-10T17:54:03;103070.00;;;5.39;100.00
60307;BME280;46155;52.364;6.580;2023-02-10T17:56:28;103074.28;;;5.45;100.00
60307;BME280;46155;52.364;6.580;2023-02-10T17:58:53;103064.25;;;5.34;100.00
60307;BME280;46155;52.364;6.580;2023-02-10T18:01:27;103082.13;;;5.38;100.00
60307;BME280;46155;52.364;6.580;2023-02-10T18:03:53;103069.81;;;5.37;100.00
60307;BME280;46155;52.364;6.580;2023-02-10T18:06:20;103076.91;;;5.38;100.00
60307;BME280;46155;52.364;6.580;2023-02-10T18:08:46;103069.84;;;5.30;100.00
60307;BME280;46155;52.364;6.580;2023-02-10T18:11:12;103063.91;;;5.31;100.00
60307;BME280;46155;52.364;6.580;2023-02-10T18:13:37;103070.22;;;5.26;100.00